Observation data for Silverton on 08/06/2020      Previous  Date       Current Mesonet Observations  Soil Data  Daily Summary Page  Observations in Plain Language
KSVS 060500Z 11012KT 24/17 A3004 RMK A01 T02350174  RH  072%=      5-min Rain = 0
KSVS 060505Z 11013KT 24/18 A3004 RMK A01 T02350175  RH  073%=      5-min Rain = 0
KSVS 060510Z 11014KT 23/18 A3004 RMK A01 T02340175  RH  073%=      5-min Rain = 0
KSVS 060515Z 11014G19KT 23/18 A3004 RMK A01 T02340175  RH  073%=      5-min Rain = 0
KSVS 060520Z 11014KT 23/18 A3003 RMK A01 T02330176  RH  074%=      5-min Rain = 0
KSVS 060525Z 11014G19KT 23/18 A3003 RMK A01 T02320176  RH  074%=      5-min Rain = 0
KSVS 060530Z 11013KT 23/18 A3003 RMK A01 T02320176  RH  075%=      5-min Rain = 0
KSVS 060535Z 11012KT 23/18 A3003 RMK A01 T02300176  RH  075%=      5-min Rain = 0
KSVS 060540Z 11013KT 23/18 A3003 RMK A01 T02300176  RH  076%=      5-min Rain = 0
KSVS 060545Z 11013KT 23/18 A3003 RMK A01 T02290176  RH  076%=      5-min Rain = 0
KSVS 060550Z 11013G18KT 23/18 A3003 RMK A01 T02290177  RH  076%=      5-min Rain = 0
KSVS 060555Z 11013KT 23/18 A3003 RMK A01 T02280176  RH  077%=      5-min Rain = 0
KSVS 060600Z 11013KT 23/18 A3003 RMK A01 T02280177  RH  077%=      5-min Rain = 0
KSVS 060605Z 11012G17KT 23/18 A3003 RMK A01 T02270177  RH  077%=      5-min Rain = 0
KSVS 060610Z 11012KT 23/18 A3003 RMK A01 T02260177  RH  078%=      5-min Rain = 0
KSVS 060615Z 11012KT 23/18 A3003 RMK A01 T02260177  RH  078%=      5-min Rain = 0
KSVS 060620Z 11013KT 23/18 A3003 RMK A01 T02260177  RH  078%=      5-min Rain = 0
KSVS 060625Z 11013KT 23/18 A3003 RMK A01 T02260178  RH  078%=      5-min Rain = 0
KSVS 060630Z 11012KT 23/18 A3003 RMK A01 T02250178  RH  079%=      5-min Rain = 0
KSVS 060635Z 11012KT 23/18 A3003 RMK A01 T02250178  RH  079%=      5-min Rain = 0
KSVS 060640Z 11012KT 22/18 A3002 RMK A01 T02240178  RH  079%=      5-min Rain = 0
KSVS 060645Z 11011KT 22/18 A3002 RMK A01 T02240178  RH  079%=      5-min Rain = 0
KSVS 060650Z 11011KT 22/18 A3002 RMK A01 T02230178  RH  080%=      5-min Rain = 0
KSVS 060655Z 11011KT 22/18 A3002 RMK A01 T02230178  RH  080%=      5-min Rain = 0
KSVS 060700Z 11011KT 22/18 A3002 RMK A01 T02220178  RH  080%=      5-min Rain = 0
KSVS 060705Z 11011KT 22/18 A3002 RMK A01 T02220179  RH  081%=      5-min Rain = 0
KSVS 060710Z 11011KT 22/18 A3002 RMK A01 T02210178  RH  081%=      5-min Rain = 0
KSVS 060715Z 11012KT 22/18 A3002 RMK A01 T02210179  RH  081%=      5-min Rain = 0
KSVS 060720Z 11011KT 22/18 A3001 RMK A01 T02210179  RH  082%=      5-min Rain = 0
KSVS 060725Z 12011KT 22/18 A3001 RMK A01 T02200179  RH  082%=      5-min Rain = 0
KSVS 060730Z 11011KT 22/18 A3001 RMK A01 T02190180  RH  082%=      5-min Rain = 0
KSVS 060735Z 12011KT 22/18 A3001 RMK A01 T02190180  RH  083%=      5-min Rain = 0
KSVS 060740Z 12011KT 22/18 A3001 RMK A01 T02180180  RH  083%=      5-min Rain = 0
KSVS 060745Z 11011KT 22/18 A3001 RMK A01 T02180180  RH  083%=      5-min Rain = 0
KSVS 060750Z 11012KT 22/18 A3001 RMK A01 T02180180  RH  084%=      5-min Rain = 0
KSVS 060755Z 11012KT 22/18 A3001 RMK A01 T02180181  RH  084%=      5-min Rain = 0
KSVS 060800Z 12012KT 22/18 A30 RMK A01 T02170181  RH  084%=      5-min Rain = 0
KSVS 060805Z 11011KT 22/18 A30 RMK A01 T02170181  RH  084%=      5-min Rain = 0
KSVS 060810Z 11012KT 22/18 A30 RMK A01 T02160181  RH  085%=      5-min Rain = 0
KSVS 060815Z 11012KT 22/18 A30 RMK A01 T02150181  RH  085%=      5-min Rain = 0
KSVS 060820Z 11012KT 22/18 A30 RMK A01 T02150182  RH  086%=      5-min Rain = 0
KSVS 060825Z 10011KT 21/18 A3001 RMK A01 T02140182  RH  086%=      5-min Rain = 0
KSVS 060830Z 10010KT 21/18 A3001 RMK A01 T02130181  RH  086%=      5-min Rain = 0
KSVS 060835Z 10011KT 21/18 A3001 RMK A01 T02120181  RH  087%=      5-min Rain = 0
KSVS 060840Z 10010KT 21/18 A3001 RMK A01 T02110181  RH  087%=      5-min Rain = 0
KSVS 060845Z 09009KT 21/18 A3001 RMK A01 T02100180  RH  088%=      5-min Rain = 0
KSVS 060850Z 09009KT 21/18 A3001 RMK A01 T02100181  RH  088%=      5-min Rain = 0
KSVS 060855Z 09009KT 21/18 A3002 RMK A01 T02100182  RH  089%=      5-min Rain = 0
KSVS 060900Z 09009KT 21/18 A3001 RMK A01 T02090182  RH  089%=      5-min Rain = 0
KSVS 060905Z 09010KT 21/18 A3001 RMK A01 T02090183  RH  090%=      5-min Rain = 0
KSVS 060910Z 10010KT 21/18 A3001 RMK A01 T02090183  RH  090%=      5-min Rain = 0
KSVS 060915Z 10010KT 21/18 A3001 RMK A01 T02090184  RH  090%=      5-min Rain = 0
KSVS 060920Z 10010KT 21/18 A3001 RMK A01 T02080183  RH  091%=      5-min Rain = 0
KSVS 060925Z 10010KT 21/18 A3001 RMK A01 T02070183  RH  091%=      5-min Rain = 0
KSVS 060930Z 10010KT 21/18 A3001 RMK A01 T02070184  RH  091%=      5-min Rain = 0
KSVS 060935Z 11010KT 21/18 A3001 RMK A01 T02070184  RH  091%=      5-min Rain = 0
KSVS 060940Z 11010KT 21/18 A30 RMK A01 T02080184  RH  091%=      5-min Rain = 0
KSVS 060945Z 12009KT 21/19 A30 RMK A01 T02070185  RH  092%=      5-min Rain = 0
KSVS 060950Z 12010KT 21/19 A30 RMK A01 T02080186  RH  092%=      5-min Rain = 0
KSVS 060955Z 12010KT 21/19 A30 RMK A01 T02070186  RH  092%=      5-min Rain = 0
KSVS 061000Z 12011KT 21/19 A30 RMK A01 T02080186  RH  092%=      5-min Rain = 0
KSVS 061005Z 12010KT 21/19 A30 RMK A01 T02070186  RH  093%=      5-min Rain = 0
KSVS 061010Z 12011KT 21/19 A2999 RMK A01 T02070187  RH  093%=      5-min Rain = 0
KSVS 061015Z 12010KT 21/19 A2999 RMK A01 T02070187  RH  093%=      5-min Rain = 0
KSVS 061020Z 13010KT 21/19 A2999 RMK A01 T02080187  RH  093%=      5-min Rain = 0
KSVS 061025Z 14009KT 21/19 A2999 RMK A01 T02070187  RH  093%=      5-min Rain = 0
KSVS 061030Z 14010KT 21/19 A2999 RMK A01 T02070187  RH  093%=      5-min Rain = 0
KSVS 061035Z 14009KT 21/19 A2999 RMK A01 T02070186  RH  093%=      5-min Rain = 0
KSVS 061040Z 14008KT 21/19 A30 RMK A01 T02060186  RH  093%=      5-min Rain = 0
KSVS 061045Z 14008KT 21/19 A30 RMK A01 T02050186  RH  094%=      5-min Rain = 0
KSVS 061050Z 13006KT 20/19 A30 RMK A01 T02040185  RH  094%=      5-min Rain = 0
KSVS 061055Z 13006KT 20/19 A30 RMK A01 T02030185  RH  094%=      5-min Rain = 0
KSVS 061100Z 13006KT 20/19 A3001 RMK A01 T02030185  RH  094%=      5-min Rain = 0
KSVS 061105Z 13006KT 20/19 A30 RMK A01 T02030185  RH  094%=      5-min Rain = 0
KSVS 061110Z 14007KT 20/19 A30 RMK A01 T02020185  RH  095%=      5-min Rain = 0
KSVS 061115Z 14007KT 20/19 A30 RMK A01 T02020185  RH  095%=      5-min Rain = 0
KSVS 061120Z 14008KT 20/19 A30 RMK A01 T02020186  RH  095%=      5-min Rain = 0
KSVS 061125Z 14009KT 20/19 A30 RMK A01 T02030186  RH  095%=      5-min Rain = 0
KSVS 061130Z 15008KT 20/19 A30 RMK A01 T02020186  RH  095%=      5-min Rain = 0
KSVS 061135Z 15007KT 20/19 A30 RMK A01 T02020185  RH  095%=      5-min Rain = 0
KSVS 061140Z 16006KT 20/19 A30 RMK A01 T02020185  RH  095%=      5-min Rain = 0
KSVS 061145Z 16007KT 20/19 A30 RMK A01 T02030185  RH  095%=      5-min Rain = 0
KSVS 061150Z 17005KT 20/18 A3001 RMK A01 T02010184  RH  095%=      5-min Rain = 0
KSVS 061155Z 17005KT 20/18 A3001 RMK A01 T02000183  RH  095%=      5-min Rain = 0
KSVS 061200Z 16006KT 20/18 A3001 RMK A01 T01980183  RH  096%=      5-min Rain = 0
KSVS 061205Z 16005KT 20/18 A3001 RMK A01 T01980183  RH  096%=      5-min Rain = 0
KSVS 061210Z 16006KT 20/18 A3001 RMK A01 T01970182  RH  096%=      5-min Rain = 0
KSVS 061215Z 15007KT 20/18 A3001 RMK A01 T01980183  RH  096%=      5-min Rain = 0
KSVS 061220Z 16007KT 20/18 A3001 RMK A01 T01970183  RH  097%=      5-min Rain = 0
KSVS 061225Z 16007KT 20/18 A3001 RMK A01 T01980184  RH  097%=      5-min Rain = 0
KSVS 061230Z 17007KT 20/18 A30 RMK A01 T01970184  RH  097%=      5-min Rain = 0
KSVS 061235Z 17008KT 20/18 A30 RMK A01 T01980184  RH  097%=      5-min Rain = 0
KSVS 061240Z 17009KT 20/18 A30 RMK A01 T01990184  RH  096%=      5-min Rain = 0
KSVS 061245Z 18010KT 20/19 A30 RMK A01 T02010185  RH  095%=      5-min Rain = 0
KSVS 061250Z 18008KT 20/19 A30 RMK A01 T02040185  RH  094%=      5-min Rain = 0
KSVS 061255Z 18009KT 21/18 A30 RMK A01 T02070184  RH  092%=      5-min Rain = 0
KSVS 061300Z 18009KT 21/18 A30 RMK A01 T02110183  RH  089%=      5-min Rain = 0
KSVS 061305Z 19008KT 22/18 A30 RMK A01 T02150181  RH  086%=      5-min Rain = 0
KSVS 061310Z 20008KT 22/18 A30 RMK A01 T02240178  RH  079%=      5-min Rain = 0
KSVS 061315Z 20009KT 24/17 A30 RMK A01 T02350173  RH  072%=      5-min Rain = 0
KSVS 061320Z 21009G14KT 24/17 A30 RMK A01 T02410171  RH  068%=      5-min Rain = 0
KSVS 061325Z 21012KT 25/16 A3001 RMK A01 T02470161  RH  062%=      5-min Rain = 0
KSVS 061330Z 21012KT 25/16 A30 RMK A01 T02530158  RH  059%=      5-min Rain = 0
KSVS 061335Z 21012KT 26/16 A30 RMK A01 T02550156  RH  057%=      5-min Rain = 0
KSVS 061340Z 21011G18KT 26/15 A30 RMK A01 T02560154  RH  056%=      5-min Rain = 0
KSVS 061345Z 21013KT 26/15 A3001 RMK A01 T02550152  RH  055%=      5-min Rain = 0
KSVS 061350Z 21012G18KT 25/15 A3001 RMK A01 T02540150  RH  055%=      5-min Rain = 0
KSVS 061355Z 21012G17KT 26/15 A3001 RMK A01 T02550149  RH  054%=      5-min Rain = 0
KSVS 061400Z 21014G19KT 26/15 A3001 RMK A01 T02610150  RH  053%=      5-min Rain = 0
KSVS 061405Z 21014G20KT 27/15 A3001 RMK A01 T02720151  RH  050%=      5-min Rain = 0
KSVS 061410Z 21015G20KT 28/15 A3001 RMK A01 T02780149  RH  048%=      5-min Rain = 0
KSVS 061415Z 22018G23KT 28/15 A3001 RMK A01 T02760147  RH  047%=      5-min Rain = 0
KSVS 061420Z 21018G24KT 28/15 A3001 RMK A01 T02760148  RH  047%=      5-min Rain = 0
KSVS 061425Z 21019G24KT 28/15 A3001 RMK A01 T02750147  RH  048%=      5-min Rain = 0
KSVS 061430Z 22019G25KT 27/15 A3001 RMK A01 T02730147  RH  048%=      5-min Rain = 0
KSVS 061435Z 21017G27KT 27/15 A3001 RMK A01 T02710148  RH  049%=      5-min Rain = 0
KSVS 061440Z 22015G22KT 27/15 A3001 RMK A01 T02700149  RH  050%=      5-min Rain = 0
KSVS 061445Z 22018G23KT 27/15 A3001 RMK A01 T02700149  RH  049%=      5-min Rain = 0
KSVS 061450Z 22015G20KT 27/15 A3001 RMK A01 T02730150  RH  049%=      5-min Rain = 0
KSVS 061455Z 22017G22KT 27/15 A3001 RMK A01 T02720149  RH  049%=      5-min Rain = 0
KSVS 061500Z 22017G22KT 27/15 A3001 RMK A01 T02720150  RH  049%=      5-min Rain = 0
KSVS 061505Z 21017G24KT 27/15 A3001 RMK A01 T02710149  RH  049%=      5-min Rain = 0
KSVS 061510Z 21017G22KT 27/15 A3001 RMK A01 T02730149  RH  049%=      5-min Rain = 0
KSVS 061515Z 22016G21KT 27/15 A3002 RMK A01 T02740149  RH  049%=      5-min Rain = 0
KSVS 061520Z 21017G23KT 28/15 A3002 RMK A01 T02770150  RH  048%=      5-min Rain = 0
KSVS 061525Z 21019G24KT 28/15 A3002 RMK A01 T02790150  RH  047%=      5-min Rain = 0
KSVS 061530Z 21017KT 28/15 A3002 RMK A01 T02840151  RH  046%=      5-min Rain = 0
KSVS 061535Z 21019G24KT 29/15 A3002 RMK A01 T02890151  RH  045%=      5-min Rain = 0
KSVS 061540Z 21017G22KT 29/15 A3002 RMK A01 T02870151  RH  046%=      5-min Rain = 0
KSVS 061545Z 21017G22KT 29/15 A3002 RMK A01 T02870151  RH  045%=      5-min Rain = 0
KSVS 061550Z 21018G24KT 29/15 A3002 RMK A01 T02880148  RH  045%=      5-min Rain = 0
KSVS 061555Z 22019KT 29/15 A3002 RMK A01 T02870147  RH  044%=      5-min Rain = 0
KSVS 061600Z 22015G21KT 29/15 A3002 RMK A01 T02890149  RH  044%=      5-min Rain = 0
KSVS 061605Z 21017G23KT 29/15 A3002 RMK A01 T02900148  RH  044%=      5-min Rain = 0
KSVS 061610Z 21016G22KT 29/15 A3002 RMK A01 T02910147  RH  043%=      5-min Rain = 0
KSVS 061615Z 22015G21KT 29/15 A3002 RMK A01 T02930147  RH  043%=      5-min Rain = 0
KSVS 061620Z 21015G20KT 29/15 A3002 RMK A01 T02930147  RH  043%=      5-min Rain = 0
KSVS 061625Z 22016KT 29/15 A3002 RMK A01 T02930146  RH  042%=      5-min Rain = 0
KSVS 061630Z 22016G22KT 30/15 A3002 RMK A01 T02980145  RH  041%=      5-min Rain = 0
KSVS 061635Z 21017KT 30/15 A3003 RMK A01 T03040147  RH  040%=      5-min Rain = 0
KSVS 061640Z 21016KT 31/15 A3002 RMK A01 T03120147  RH  039%=      5-min Rain = 0
KSVS 061645Z 21017G22KT 31/15 A3002 RMK A01 T03120145  RH  038%=      5-min Rain = 0
KSVS 061650Z 21015G20KT 31/14 A3002 RMK A01 T03130144  RH  037%=      5-min Rain = 0
KSVS 061655Z 22016KT 31/14 A3002 RMK A01 T03080144  RH  038%=      5-min Rain = 0
KSVS 061700Z 22016G21KT 31/15 A3003 RMK A01 T03090145  RH  038%=      5-min Rain = 0
KSVS 061705Z 22014G19KT 31/15 A3003 RMK A01 T03090145  RH  039%=      5-min Rain = 0
KSVS 061710Z 22014KT 32/15 A3002 RMK A01 T03220147  RH  036%=      5-min Rain = 0
KSVS 061715Z 21013G18KT 34/15 A3002 RMK A01 T03360147  RH  034%=      5-min Rain = 0
KSVS 061720Z 21014G19KT 33/14 A3002 RMK A01 T03320142  RH  033%=      5-min Rain = 0
KSVS 061725Z 21015G20KT 33/14 A3002 RMK A01 T03260140  RH  034%=      5-min Rain = 0
KSVS 061730Z 21013KT 33/14 A3002 RMK A01 T03250136  RH  033%=      5-min Rain = 0
KSVS 061735Z 21014KT 33/13 A3002 RMK A01 T03250131  RH  032%=      5-min Rain = 0
KSVS 061740Z 22011G17KT 33/13 A3002 RMK A01 T03250132  RH  032%=      5-min Rain = 0
KSVS 061745Z 21012KT 33/13 A3001 RMK A01 T03280134  RH  032%=      5-min Rain = 0
KSVS 061750Z 19013KT 33/12 A3001 RMK A01 T03310119  RH  029%=      5-min Rain = 0
KSVS 061755Z 20011KT 33/12 A3001 RMK A01 T03330119  RH  028%=      5-min Rain = 0
KSVS 061800Z 19013KT 33/11 A3001 RMK A01 T03330113  RH  027%=      5-min Rain = 0
KSVS 061805Z 20010G16KT 33/11 A3001 RMK A01 T03300111  RH  027%=      5-min Rain = 0
KSVS 061810Z 20011KT 33/12 A3002 RMK A01 T03310117  RH  028%=      5-min Rain = 0
KSVS 061815Z 21011KT 33/12 A3002 RMK A01 T03330117  RH  028%=      5-min Rain = 0
KSVS 061820Z 22012KT 33/12 A3002 RMK A01 T03330119  RH  028%=      5-min Rain = 0
KSVS 061825Z 22014KT 33/12 A3002 RMK A01 T03320115  RH  028%=      5-min Rain = 0
KSVS 061830Z 22013KT 33/12 A3002 RMK A01 T03290117  RH  028%=      5-min Rain = 0
KSVS 061835Z 22012KT 33/12 A3002 RMK A01 T03270119  RH  029%=      5-min Rain = 0
KSVS 061840Z 22011KT 33/12 A3002 RMK A01 T03280123  RH  030%=      5-min Rain = 0
KSVS 061845Z 22011KT 33/13 A3002 RMK A01 T03310126  RH  030%=      5-min Rain = 0
KSVS 061850Z 21011KT 33/13 A3002 RMK A01 T03340126  RH  029%=      5-min Rain = 0
KSVS 061855Z 21008KT 34/13 A3002 RMK A01 T03360126  RH  029%=      5-min Rain = 0
KSVS 061900Z 22007KT 35/13 A3002 RMK A01 T03480128  RH  028%=      5-min Rain = 0
KSVS 061905Z 23009G15KT 35/13 A3001 RMK A01 T03530128  RH  027%=      5-min Rain = 0
KSVS 061910Z 21007G12KT 35/13 A3001 RMK A01 T03500130  RH  028%=      5-min Rain = 0
KSVS 061915Z 21010KT 35/12 A3001 RMK A01 T03480117  RH  026%=      5-min Rain = 0
KSVS 061920Z 21007KT 35/11 A3001 RMK A01 T03450114  RH  026%=      5-min Rain = 0
KSVS 061925Z 22008KT 34/12 A3001 RMK A01 T03430115  RH  026%=      5-min Rain = 0
KSVS 061930Z 23008KT 34/12 A3001 RMK A01 T03410117  RH  026%=      5-min Rain = 0
KSVS 061935Z 20009KT 34/11 A30 RMK A01 T03420113  RH  026%=      5-min Rain = 0
KSVS 061940Z 18010KT 34/10 A30 RMK A01 T03440104  RH  024%=      5-min Rain = 0
KSVS 061945Z 18011KT 35/10 A30 RMK A01 T03450104  RH  024%=      5-min Rain = 0
KSVS 061950Z 18011KT 34/11 A30 RMK A01 T03430105  RH  024%=      5-min Rain = 0
KSVS 061955Z 18010KT 34/11 A30 RMK A01 T03420105  RH  024%=      5-min Rain = 0
KSVS 062000Z 18008KT 35/10 A30 RMK A01 T03460103  RH  024%=      5-min Rain = 0
KSVS 062005Z 17006KT 35/10 A30 RMK A01 T03460103  RH  024%=      5-min Rain = 0
KSVS 062010Z 17008KT 34/10 A30 RMK A01 T03430104  RH  024%=      5-min Rain = 0
KSVS 062015Z 16007KT 34/11 A30 RMK A01 T03430108  RH  025%=      5-min Rain = 0
KSVS 062020Z 15009KT 34/11 A30 RMK A01 T03440108  RH  025%=      5-min Rain = 0
KSVS 062025Z 14008KT 35/11 A2999 RMK A01 T03460109  RH  025%=      5-min Rain = 0
KSVS 062030Z 15009KT 35/11 A2999 RMK A01 T03470110  RH  024%=      5-min Rain = 0
KSVS 062035Z 14009KT 35/11 A2999 RMK A01 T03490109  RH  024%=      5-min Rain = 0
KSVS 062040Z 16012G17KT 36/10 A2999 RMK A01 T03550098  RH  022%=      5-min Rain = 0
KSVS 062045Z 17012G17KT 36/09 A2999 RMK A01 T03580091  RH  020%=      5-min Rain = 0
KSVS 062050Z 16011KT 36/10 A2999 RMK A01 T03570100  RH  022%=      5-min Rain = 0
KSVS 062055Z 17012G19KT 36/10 A2998 RMK A01 T03590102  RH  022%=      5-min Rain = 0
KSVS 062100Z 17013G21KT 36/10 A2998 RMK A01 T03550101  RH  022%=      5-min Rain = 0
KSVS 062105Z 16012G17KT 36/11 A2998 RMK A01 T03580107  RH  023%=      5-min Rain = 0
KSVS 062110Z 16012G18KT 36/11 A2998 RMK A01 T03580109  RH  023%=      5-min Rain = 0
KSVS 062115Z 15013G20KT 36/11 A2998 RMK A01 T03600106  RH  022%=      5-min Rain = 0
KSVS 062120Z 17013G19KT 36/11 A2997 RMK A01 T03630108  RH  022%=      5-min Rain = 0
KSVS 062125Z 16013G21KT 36/11 A2997 RMK A01 T03600109  RH  023%=      5-min Rain = 0
KSVS 062130Z 16014KT 36/11 A2997 RMK A01 T03620109  RH  023%=      5-min Rain = 0
KSVS 062135Z 17015G21KT 36/11 A2997 RMK A01 T03590112  RH  023%=      5-min Rain = 0
KSVS 062140Z 17015G20KT 36/11 A2996 RMK A01 T03620111  RH  023%=      5-min Rain = 0
KSVS 062145Z 16015G22KT 37/11 A2996 RMK A01 T03680110  RH  022%=      5-min Rain = 0
KSVS 062150Z 16013KT 36/11 A2996 RMK A01 T03600108  RH  023%=      5-min Rain = 0
KSVS 062155Z 17017G24KT 36/11 A2996 RMK A01 T03610108  RH  022%=      5-min Rain = 0
KSVS 062200Z 17013G22KT 36/11 A2995 RMK A01 T03570108  RH  023%=      5-min Rain = 0
KSVS 062205Z 16016KT 37/11 A2995 RMK A01 T03660108  RH  022%=      5-min Rain = 0
KSVS 062210Z 17015KT 36/11 A2995 RMK A01 T03590107  RH  023%=      5-min Rain = 0
KSVS 062215Z 18012G17KT 36/11 A2995 RMK A01 T03580106  RH  023%=      5-min Rain = 0
KSVS 062220Z 18014KT 37/11 A2994 RMK A01 T03730107  RH  021%=      5-min Rain = 0
KSVS 062225Z 17015G21KT 38/11 A2994 RMK A01 T03760105  RH  020%=      5-min Rain = 0
KSVS 062230Z 17014G21KT 37/10 A2994 RMK A01 T03720104  RH  020%=      5-min Rain = 0
KSVS 062235Z 18013G19KT 37/10 A2994 RMK A01 T03680103  RH  021%=      5-min Rain = 0
KSVS 062240Z 18015G24KT 37/10 A2994 RMK A01 T03690104  RH  021%=      5-min Rain = 0
KSVS 062245Z 19014G21KT 36/10 A2994 RMK A01 T03640103  RH  021%=      5-min Rain = 0
KSVS 062250Z 16015G21KT 36/10 A2994 RMK A01 T03630104  RH  022%=      5-min Rain = 0
KSVS 062255Z 17017G26KT 36/10 A2994 RMK A01 T03570102  RH  022%=      5-min Rain = 0
KSVS 062300Z 17014G19KT 36/10 A2994 RMK A01 T03570102  RH  022%=      5-min Rain = 0
KSVS 062305Z 18016G21KT 36/10 A2994 RMK A01 T03570101  RH  022%=      5-min Rain = 0
KSVS 062310Z 18014G19KT 36/10 A2993 RMK A01 T03590102  RH  022%=      5-min Rain = 0
KSVS 062315Z 17014KT 36/10 A2993 RMK A01 T03630103  RH  021%=      5-min Rain = 0
KSVS 062320Z 17014KT 37/11 A2993 RMK A01 T03720105  RH  021%=      5-min Rain = 0
KSVS 062325Z 18017KT 37/10 A2993 RMK A01 T03650103  RH  021%=      5-min Rain = 0
KSVS 062330Z 18017G22KT 36/10 A2993 RMK A01 T03580103  RH  022%=      5-min Rain = 0
KSVS 062335Z 17014G22KT 37/11 A2993 RMK A01 T03650105  RH  022%=      5-min Rain = 0
KSVS 062340Z 17015G20KT 37/10 A2993 RMK A01 T03740104  RH  020%=      5-min Rain = 0
KSVS 062345Z 17016KT 37/11 A2993 RMK A01 T03670108  RH  022%=      5-min Rain = 0
KSVS 062350Z 16015G20KT 36/12 A2993 RMK A01 T03580115  RH  024%=      5-min Rain = 0
KSVS 062355Z 16016G21KT 35/12 A2993 RMK A01 T03540115  RH  025%=      5-min Rain = 0
KSVS 070000Z 16013G18KT 35/12 A2993 RMK A01 T03520116  RH  025%=      5-min Rain = 0
KSVS 070005Z 16014KT 35/12 A2993 RMK A01 T03520117  RH  025%=      5-min Rain = 0
KSVS 070010Z 16014KT 35/12 A2993 RMK A01 T03520118  RH  025%=      5-min Rain = 0
KSVS 070015Z 16014KT 35/12 A2993 RMK A01 T03510119  RH  026%=      5-min Rain = 0
KSVS 070020Z 16015G21KT 35/12 A2993 RMK A01 T03510120  RH  026%=      5-min Rain = 0
KSVS 070025Z 17015G20KT 35/12 A2993 RMK A01 T03520122  RH  026%=      5-min Rain = 0
KSVS 070030Z 17017KT 36/12 A2993 RMK A01 T03550122  RH  025%=      5-min Rain = 0
KSVS 070035Z 17016G22KT 35/12 A2994 RMK A01 T03530123  RH  026%=      5-min Rain = 0
KSVS 070040Z 16017KT 35/12 A2994 RMK A01 T03480122  RH  027%=      5-min Rain = 0
KSVS 070045Z 17015KT 35/12 A2994 RMK A01 T03450123  RH  027%=      5-min Rain = 0
KSVS 070050Z 17016KT 34/12 A2994 RMK A01 T03420124  RH  028%=      5-min Rain = 0
KSVS 070055Z 17013G19KT 34/12 A2994 RMK A01 T03400124  RH  028%=      5-min Rain = 0
KSVS 070100Z 17015KT 34/13 A2994 RMK A01 T03390125  RH  028%=      5-min Rain = 0
KSVS 070105Z 17015G20KT 34/13 A2994 RMK A01 T03370125  RH  029%=      5-min Rain = 0
KSVS 070110Z 16014G19KT 34/13 A2994 RMK A01 T03350125  RH  029%=      5-min Rain = 0
KSVS 070115Z 16016KT 33/13 A2995 RMK A01 T03340125  RH  029%=      5-min Rain = 0
KSVS 070120Z 17014G19KT 33/13 A2995 RMK A01 T03320126  RH  030%=      5-min Rain = 0
KSVS 070125Z 17013G18KT 33/13 A2995 RMK A01 T03300126  RH  030%=      5-min Rain = 0
KSVS 070130Z 17013KT 33/13 A2995 RMK A01 T03290126  RH  030%=      5-min Rain = 0
KSVS 070135Z 17012KT 33/13 A2995 RMK A01 T03270127  RH  031%=      5-min Rain = 0
KSVS 070140Z 17011KT 33/13 A2995 RMK A01 T03250127  RH  031%=      5-min Rain = 0
KSVS 070145Z 17011KT 32/13 A2996 RMK A01 T03240127  RH  031%=      5-min Rain = 0
KSVS 070150Z 17011KT 32/13 A2996 RMK A01 T03230128  RH  032%=      5-min Rain = 0
KSVS 070155Z 17012KT 32/13 A2996 RMK A01 T03220129  RH  032%=      5-min Rain = 0
KSVS 070200Z 16012KT 32/13 A2996 RMK A01 T03200130  RH  033%=      5-min Rain = 0
KSVS 070205Z 16011KT 32/13 A2996 RMK A01 T03190131  RH  033%=      5-min Rain = 0
KSVS 070210Z 16012KT 32/13 A2996 RMK A01 T03190131  RH  033%=      5-min Rain = 0
KSVS 070215Z 16011KT 32/13 A2996 RMK A01 T03190131  RH  033%=      5-min Rain = 0
KSVS 070220Z 16011KT 32/13 A2996 RMK A01 T03190132  RH  033%=      5-min Rain = 0
KSVS 070225Z 16011KT 32/13 A2996 RMK A01 T03190132  RH  033%=      5-min Rain = 0
KSVS 070230Z 16011KT 32/13 A2996 RMK A01 T03190132  RH  033%=      5-min Rain = 0
KSVS 070235Z 14010KT 32/13 A2996 RMK A01 T03170132  RH  034%=      5-min Rain = 0
KSVS 070240Z 14008KT 31/13 A2996 RMK A01 T03100132  RH  035%=      5-min Rain = 0
KSVS 070245Z 14009KT 31/13 A2996 RMK A01 T03050133  RH  036%=      5-min Rain = 0
KSVS 070250Z 14011KT 31/13 A2996 RMK A01 T03070132  RH  036%=      5-min Rain = 0
KSVS 070255Z 14010KT 31/13 A2997 RMK A01 T03100131  RH  035%=      5-min Rain = 0
KSVS 070300Z 14009KT 31/13 A2997 RMK A01 T03070132  RH  036%=      5-min Rain = 0
KSVS 070305Z 13009KT 30/13 A2997 RMK A01 T03030132  RH  036%=      5-min Rain = 0
KSVS 070310Z 13009KT 30/13 A2997 RMK A01 T02990131  RH  037%=      5-min Rain = 0
KSVS 070315Z 13009KT 29/13 A2998 RMK A01 T02940132  RH  038%=      5-min Rain = 0
KSVS 070320Z 14009KT 29/13 A2998 RMK A01 T02910133  RH  039%=      5-min Rain = 0
KSVS 070325Z 15010KT 29/13 A2998 RMK A01 T02890133  RH  040%=      5-min Rain = 0
KSVS 070330Z 16010KT 29/13 A2998 RMK A01 T02870134  RH  041%=      5-min Rain = 0
KSVS 070335Z 16012KT 29/14 A2998 RMK A01 T02870135  RH  041%=      5-min Rain = 0
KSVS 070340Z 18014G19KT 29/13 A2998 RMK A01 T02890133  RH  040%=      5-min Rain = 0
KSVS 070345Z 18016G21KT 30/13 A2997 RMK A01 T02950130  RH  038%=      5-min Rain = 0
KSVS 070350Z 18016KT 30/13 A2997 RMK A01 T03000130  RH  037%=      5-min Rain = 0
KSVS 070355Z 18015KT 30/13 A2997 RMK A01 T02980130  RH  037%=      5-min Rain = 0
KSVS 070400Z 19013KT 30/13 A2997 RMK A01 T02960130  RH  038%=      5-min Rain = 0
KSVS 070405Z 19012KT 29/13 A2997 RMK A01 T02940130  RH  038%=      5-min Rain = 0
KSVS 070410Z 19011G16KT 29/13 A2997 RMK A01 T02940129  RH  038%=      5-min Rain = 0
KSVS 070415Z 19011KT 29/13 A2997 RMK A01 T02930129  RH  038%=      5-min Rain = 0
KSVS 070420Z 19011G18KT 29/13 A2998 RMK A01 T02920129  RH  038%=      5-min Rain = 0
KSVS 070425Z 19012KT 29/13 A2998 RMK A01 T02930128  RH  038%=      5-min Rain = 0
KSVS 070430Z 20011KT 29/13 A2998 RMK A01 T02900128  RH  038%=      5-min Rain = 0
KSVS 070435Z 20011KT 29/13 A2998 RMK A01 T02870128  RH  039%=      5-min Rain = 0
KSVS 070440Z 20010KT 29/13 A2998 RMK A01 T02860128  RH  039%=      5-min Rain = 0
KSVS 070445Z 20008KT 28/13 A2998 RMK A01 T02780128  RH  041%=      5-min Rain = 0
KSVS 070450Z 21008KT 27/13 A2999 RMK A01 T02730128  RH  042%=      5-min Rain = 0
KSVS 070455Z 21007KT 27/13 A2998 RMK A01 T02680128  RH  044%=      5-min Rain = 0

Page generated in 0.0411 seconds.